sensor_id;sensor_type;location;lat;lon;timestamp;P1;durP1;ratioP1;P2;durP2;ratioP2
54193;SDS011;40102;50.906;6.972;2024-03-29T00:01:15;1.10;;;0.30;;
54193;SDS011;40102;50.906;6.972;2024-03-29T00:03:40;2.92;;;0.40;;
54193;SDS011;40102;50.906;6.972;2024-03-29T00:06:07;1.13;;;0.40;;
54193;SDS011;40102;50.906;6.972;2024-03-29T00:08:32;1.60;;;0.40;;
54193;SDS011;40102;50.906;6.972;2024-03-29T00:10:58;3.70;;;0.82;;
54193;SDS011;40102;50.906;6.972;2024-03-29T00:13:23;2.78;;;0.95;;
54193;SDS011;40102;50.906;6.972;2024-03-29T00:15:48;1.63;;;0.60;;
54193;SDS011;40102;50.906;6.972;2024-03-29T00:18:13;2.58;;;0.47;;
54193;SDS011;40102;50.906;6.972;2024-03-29T00:20:39;5.18;;;0.60;;
54193;SDS011;40102;50.906;6.972;2024-03-29T00:23:04;2.35;;;0.40;;
54193;SDS011;40102;50.906;6.972;2024-03-29T00:25:29;0.70;;;0.40;;
54193;SDS011;40102;50.906;6.972;2024-03-29T00:27:55;2.38;;;0.80;;
54193;SDS011;40102;50.906;6.972;2024-03-29T00:30:20;2.78;;;0.45;;
54193;SDS011;40102;50.906;6.972;2024-03-29T00:32:45;2.40;;;0.50;;
54193;SDS011;40102;50.906;6.972;2024-03-29T00:35:11;2.90;;;0.50;;
54193;SDS011;40102;50.906;6.972;2024-03-29T00:37:36;1.25;;;0.77;;
54193;SDS011;40102;50.906;6.972;2024-03-29T00:40:01;2.47;;;0.63;;
54193;SDS011;40102;50.906;6.972;2024-03-29T00:42:27;0.68;;;0.30;;
54193;SDS011;40102;50.906;6.972;2024-03-29T00:44:53;2.50;;;0.50;;
54193;SDS011;40102;50.906;6.972;2024-03-29T00:47:18;5.20;;;0.55;;
54193;SDS011;40102;50.906;6.972;2024-03-29T00:49:43;0.60;;;0.30;;
54193;SDS011;40102;50.906;6.972;2024-03-29T00:52:09;1.15;;;0.45;;
54193;SDS011;40102;50.906;6.972;2024-03-29T00:54:34;1.65;;;0.50;;
54193;SDS011;40102;50.906;6.972;2024-03-29T00:56:59;3.67;;;0.52;;
54193;SDS011;40102;50.906;6.972;2024-03-29T00:59:25;4.35;;;0.70;;
54193;SDS011;40102;50.906;6.972;2024-03-29T01:01:50;2.50;;;0.40;;
54193;SDS011;40102;50.906;6.972;2024-03-29T01:04:16;1.65;;;0.40;;
54193;SDS011;40102;50.906;6.972;2024-03-29T01:06:41;1.83;;;0.70;;
54193;SDS011;40102;50.906;6.972;2024-03-29T01:09:07;1.55;;;0.50;;
54193;SDS011;40102;50.906;6.972;2024-03-29T01:11:36;1.10;;;0.50;;
54193;SDS011;40102;50.906;6.972;2024-03-29T01:14:02;1.92;;;0.50;;
54193;SDS011;40102;50.906;6.972;2024-03-29T01:16:27;2.05;;;0.50;;
54193;SDS011;40102;50.906;6.972;2024-03-29T01:18:52;1.08;;;0.70;;
54193;SDS011;40102;50.906;6.972;2024-03-29T01:21:18;2.25;;;0.40;;
54193;SDS011;40102;50.906;6.972;2024-03-29T01:23:43;2.47;;;0.50;;
54193;SDS011;40102;50.906;6.972;2024-03-29T01:26:09;3.53;;;0.60;;
54193;SDS011;40102;50.906;6.972;2024-03-29T01:28:38;1.40;;;0.50;;
54193;SDS011;40102;50.906;6.972;2024-03-29T01:31:04;1.70;;;0.43;;
54193;SDS011;40102;50.906;6.972;2024-03-29T01:33:30;1.75;;;0.40;;
54193;SDS011;40102;50.906;6.972;2024-03-29T01:36:01;3.47;;;0.50;;
54193;SDS011;40102;50.906;6.972;2024-03-29T01:38:27;0.63;;;0.50;;
54193;SDS011;40102;50.906;6.972;2024-03-29T01:40:52;2.28;;;0.50;;
54193;SDS011;40102;50.906;6.972;2024-03-29T01:43:17;1.90;;;0.60;;
54193;SDS011;40102;50.906;6.972;2024-03-29T01:45:43;2.00;;;0.60;;
54193;SDS011;40102;50.906;6.972;2024-03-29T01:48:13;3.22;;;0.75;;
54193;SDS011;40102;50.906;6.972;2024-03-29T01:50:40;0.95;;;0.43;;
54193;SDS011;40102;50.906;6.972;2024-03-29T01:53:07;1.98;;;0.60;;
54193;SDS011;40102;50.906;6.972;2024-03-29T01:55:33;2.50;;;0.60;;
54193;SDS011;40102;50.906;6.972;2024-03-29T01:57:59;2.88;;;0.60;;
54193;SDS011;40102;50.906;6.972;2024-03-29T02:00:24;1.67;;;0.50;;
54193;SDS011;40102;50.906;6.972;2024-03-29T02:02:51;2.25;;;0.70;;
54193;SDS011;40102;50.906;6.972;2024-03-29T02:05:17;1.60;;;0.57;;
54193;SDS011;40102;50.906;6.972;2024-03-29T02:07:43;0.80;;;0.57;;
54193;SDS011;40102;50.906;6.972;2024-03-29T02:10:11;3.40;;;0.50;;
54193;SDS011;40102;50.906;6.972;2024-03-29T02:12:38;1.42;;;0.50;;
54193;SDS011;40102;50.906;6.972;2024-03-29T02:15:04;1.02;;;0.50;;
54193;SDS011;40102;50.906;6.972;2024-03-29T02:17:31;1.83;;;0.80;;
54193;SDS011;40102;50.906;6.972;2024-03-29T02:19:56;1.75;;;0.52;;
54193;SDS011;40102;50.906;6.972;2024-03-29T02:22:22;1.25;;;0.50;;
54193;SDS011;40102;50.906;6.972;2024-03-29T02:24:50;1.38;;;0.40;;
54193;SDS011;40102;50.906;6.972;2024-03-29T02:27:17;1.08;;;0.40;;
54193;SDS011;40102;50.906;6.972;2024-03-29T02:29:42;1.33;;;0.50;;
54193;SDS011;40102;50.906;6.972;2024-03-29T02:32:07;3.08;;;0.70;;
54193;SDS011;40102;50.906;6.972;2024-03-29T02:34:32;0.88;;;0.40;;
54193;SDS011;40102;50.906;6.972;2024-03-29T02:36:58;3.20;;;0.82;;
54193;SDS011;40102;50.906;6.972;2024-03-29T02:39:24;2.70;;;0.50;;
54193;SDS011;40102;50.906;6.972;2024-03-29T02:41:49;1.25;;;0.60;;
54193;SDS011;40102;50.906;6.972;2024-03-29T02:44:15;1.27;;;0.60;;
54193;SDS011;40102;50.906;6.972;2024-03-29T02:46:43;1.92;;;0.52;;
54193;SDS011;40102;50.906;6.972;2024-03-29T02:49:08;2.60;;;0.47;;
54193;SDS011;40102;50.906;6.972;2024-03-29T02:51:34;1.75;;;0.50;;
54193;SDS011;40102;50.906;6.972;2024-03-29T02:54:00;1.60;;;0.50;;
54193;SDS011;40102;50.906;6.972;2024-03-29T02:56:25;2.50;;;0.60;;
54193;SDS011;40102;50.906;6.972;2024-03-29T02:58:52;1.73;;;0.60;;
54193;SDS011;40102;50.906;6.972;2024-03-29T03:01:17;1.10;;;0.50;;
54193;SDS011;40102;50.906;6.972;2024-03-29T03:03:42;1.42;;;0.40;;
54193;SDS011;40102;50.906;6.972;2024-03-29T03:06:08;1.88;;;0.60;;
54193;SDS011;40102;50.906;6.972;2024-03-29T03:08:33;1.83;;;0.40;;
54193;SDS011;40102;50.906;6.972;2024-03-29T03:11:17;2.38;;;0.55;;
54193;SDS011;40102;50.906;6.972;2024-03-29T03:13:42;1.42;;;0.88;;
54193;SDS011;40102;50.906;6.972;2024-03-29T03:16:07;1.38;;;0.57;;
54193;SDS011;40102;50.906;6.972;2024-03-29T03:18:33;1.55;;;0.50;;
54193;SDS011;40102;50.906;6.972;2024-03-29T03:20:58;1.80;;;0.55;;
54193;SDS011;40102;50.906;6.972;2024-03-29T03:23:24;3.60;;;0.52;;
54193;SDS011;40102;50.906;6.972;2024-03-29T03:25:56;2.50;;;0.60;;
54193;SDS011;40102;50.906;6.972;2024-03-29T03:28:25;1.45;;;0.40;;
54193;SDS011;40102;50.906;6.972;2024-03-29T03:30:52;2.78;;;0.70;;
54193;SDS011;40102;50.906;6.972;2024-03-29T03:33:18;1.38;;;0.43;;
54193;SDS011;40102;50.906;6.972;2024-03-29T03:35:44;2.03;;;0.60;;
54193;SDS011;40102;50.906;6.972;2024-03-29T03:38:10;2.83;;;0.68;;
54193;SDS011;40102;50.906;6.972;2024-03-29T03:40:36;4.57;;;0.70;;
54193;SDS011;40102;50.906;6.972;2024-03-29T03:43:02;3.28;;;0.85;;
54193;SDS011;40102;50.906;6.972;2024-03-29T03:45:28;1.98;;;0.70;;
54193;SDS011;40102;50.906;6.972;2024-03-29T03:47:58;3.13;;;0.80;;
54193;SDS011;40102;50.906;6.972;2024-03-29T03:50:23;2.75;;;1.00;;
54193;SDS011;40102;50.906;6.972;2024-03-29T03:52:49;1.58;;;0.60;;
54193;SDS011;40102;50.906;6.972;2024-03-29T03:55:14;2.38;;;0.75;;
54193;SDS011;40102;50.906;6.972;2024-03-29T03:57:40;1.23;;;0.50;;
54193;SDS011;40102;50.906;6.972;2024-03-29T04:00:06;3.67;;;0.85;;
54193;SDS011;40102;50.906;6.972;2024-03-29T04:02:31;1.13;;;0.50;;
54193;SDS011;40102;50.906;6.972;2024-03-29T04:04:57;1.17;;;0.50;;
54193;SDS011;40102;50.906;6.972;2024-03-29T04:07:22;0.60;;;0.40;;
54193;SDS011;40102;50.906;6.972;2024-03-29T04:09:51;1.40;;;0.45;;
54193;SDS011;40102;50.906;6.972;2024-03-29T04:12:17;3.05;;;0.85;;
54193;SDS011;40102;50.906;6.972;2024-03-29T04:14:42;1.40;;;0.45;;
54193;SDS011;40102;50.906;6.972;2024-03-29T04:17:08;1.35;;;0.40;;
54193;SDS011;40102;50.906;6.972;2024-03-29T04:19:33;5.03;;;0.50;;
54193;SDS011;40102;50.906;6.972;2024-03-29T04:21:59;2.28;;;0.60;;
54193;SDS011;40102;50.906;6.972;2024-03-29T04:24:24;0.80;;;0.50;;
54193;SDS011;40102;50.906;6.972;2024-03-29T04:26:49;2.05;;;0.70;;
54193;SDS011;40102;50.906;6.972;2024-03-29T04:29:15;3.38;;;0.50;;
54193;SDS011;40102;50.906;6.972;2024-03-29T04:31:41;1.80;;;0.50;;
54193;SDS011;40102;50.906;6.972;2024-03-29T04:34:06;3.50;;;0.60;;
54193;SDS011;40102;50.906;6.972;2024-03-29T04:36:32;3.28;;;0.60;;
54193;SDS011;40102;50.906;6.972;2024-03-29T04:39:00;1.48;;;0.68;;
54193;SDS011;40102;50.906;6.972;2024-03-29T04:41:26;2.67;;;0.73;;
54193;SDS011;40102;50.906;6.972;2024-03-29T04:43:51;2.03;;;0.60;;
54193;SDS011;40102;50.906;6.972;2024-03-29T04:46:16;2.35;;;0.70;;
54193;SDS011;40102;50.906;6.972;2024-03-29T04:48:42;2.22;;;0.63;;
54193;SDS011;40102;50.906;6.972;2024-03-29T04:51:10;4.57;;;0.50;;
54193;SDS011;40102;50.906;6.972;2024-03-29T04:53:36;2.80;;;0.50;;
54193;SDS011;40102;50.906;6.972;2024-03-29T04:56:03;1.95;;;0.70;;
54193;SDS011;40102;50.906;6.972;2024-03-29T04:58:29;3.58;;;0.68;;
54193;SDS011;40102;50.906;6.972;2024-03-29T05:00:55;1.48;;;0.40;;
54193;SDS011;40102;50.906;6.972;2024-03-29T05:03:21;1.50;;;0.60;;
54193;SDS011;40102;50.906;6.972;2024-03-29T05:05:47;2.53;;;0.40;;
54193;SDS011;40102;50.906;6.972;2024-03-29T05:08:14;1.05;;;0.50;;
54193;SDS011;40102;50.906;6.972;2024-03-29T05:10:40;2.00;;;0.55;;
54193;SDS011;40102;50.906;6.972;2024-03-29T05:13:05;2.65;;;0.60;;
54193;SDS011;40102;50.906;6.972;2024-03-29T05:15:31;3.10;;;0.60;;
54193;SDS011;40102;50.906;6.972;2024-03-29T05:17:57;1.25;;;0.43;;
54193;SDS011;40102;50.906;6.972;2024-03-29T05:20:23;2.75;;;0.45;;
54193;SDS011;40102;50.906;6.972;2024-03-29T05:22:48;1.15;;;0.52;;
54193;SDS011;40102;50.906;6.972;2024-03-29T05:25:13;1.85;;;0.50;;
54193;SDS011;40102;50.906;6.972;2024-03-29T05:27:39;4.63;;;0.77;;
54193;SDS011;40102;50.906;6.972;2024-03-29T05:30:04;2.83;;;0.60;;
54193;SDS011;40102;50.906;6.972;2024-03-29T05:32:30;1.95;;;0.70;;
54193;SDS011;40102;50.906;6.972;2024-03-29T05:34:55;3.55;;;0.60;;
54193;SDS011;40102;50.906;6.972;2024-03-29T05:37:21;2.63;;;0.70;;
54193;SDS011;40102;50.906;6.972;2024-03-29T05:39:49;1.20;;;0.70;;
54193;SDS011;40102;50.906;6.972;2024-03-29T05:42:16;2.50;;;0.60;;
54193;SDS011;40102;50.906;6.972;2024-03-29T05:44:42;3.25;;;0.80;;
54193;SDS011;40102;50.906;6.972;2024-03-29T05:47:07;1.98;;;0.60;;
54193;SDS011;40102;50.906;6.972;2024-03-29T05:49:32;1.48;;;0.60;;
54193;SDS011;40102;50.906;6.972;2024-03-29T05:51:58;1.67;;;0.50;;
54193;SDS011;40102;50.906;6.972;2024-03-29T05:54:24;2.90;;;0.70;;
54193;SDS011;40102;50.906;6.972;2024-03-29T05:56:49;4.68;;;1.08;;
54193;SDS011;40102;50.906;6.972;2024-03-29T05:59:15;1.48;;;0.63;;
54193;SDS011;40102;50.906;6.972;2024-03-29T06:01:40;1.77;;;0.70;;
54193;SDS011;40102;50.906;6.972;2024-03-29T06:04:05;3.42;;;0.70;;
54193;SDS011;40102;50.906;6.972;2024-03-29T06:06:38;1.35;;;0.70;;
54193;SDS011;40102;50.906;6.972;2024-03-29T06:09:04;2.08;;;0.70;;
54193;SDS011;40102;50.906;6.972;2024-03-29T06:11:30;1.10;;;0.70;;
54193;SDS011;40102;50.906;6.972;2024-03-29T06:13:55;2.80;;;0.73;;
54193;SDS011;40102;50.906;6.972;2024-03-29T06:16:27;2.70;;;0.60;;
54193;SDS011;40102;50.906;6.972;2024-03-29T06:19:12;1.55;;;0.57;;
54193;SDS011;40102;50.906;6.972;2024-03-29T06:21:37;1.73;;;0.65;;
54193;SDS011;40102;50.906;6.972;2024-03-29T06:24:07;1.48;;;0.60;;
54193;SDS011;40102;50.906;6.972;2024-03-29T06:26:40;1.15;;;0.50;;
54193;SDS011;40102;50.906;6.972;2024-03-29T06:29:06;2.38;;;0.70;;
54193;SDS011;40102;50.906;6.972;2024-03-29T06:31:34;3.35;;;0.60;;
54193;SDS011;40102;50.906;6.972;2024-03-29T06:33:59;2.05;;;0.70;;
54193;SDS011;40102;50.906;6.972;2024-03-29T06:36:25;2.13;;;0.60;;
54193;SDS011;40102;50.906;6.972;2024-03-29T06:38:51;0.80;;;0.57;;
54193;SDS011;40102;50.906;6.972;2024-03-29T06:41:17;2.83;;;0.90;;
54193;SDS011;40102;50.906;6.972;2024-03-29T06:43:42;1.45;;;0.73;;
54193;SDS011;40102;50.906;6.972;2024-03-29T06:46:11;1.25;;;0.68;;
54193;SDS011;40102;50.906;6.972;2024-03-29T06:48:37;1.13;;;0.70;;
54193;SDS011;40102;50.906;6.972;2024-03-29T06:51:03;4.32;;;1.15;;
54193;SDS011;40102;50.906;6.972;2024-03-29T06:53:28;1.92;;;0.50;;
54193;SDS011;40102;50.906;6.972;2024-03-29T06:55:55;5.82;;;0.80;;
54193;SDS011;40102;50.906;6.972;2024-03-29T06:58:21;3.78;;;0.80;;
54193;SDS011;40102;50.906;6.972;2024-03-29T07:00:47;1.25;;;0.75;;
54193;SDS011;40102;50.906;6.972;2024-03-29T07:03:14;1.30;;;0.60;;
54193;SDS011;40102;50.906;6.972;2024-03-29T07:05:40;0.60;;;0.50;;
54193;SDS011;40102;50.906;6.972;2024-03-29T07:08:05;1.15;;;0.50;;
54193;SDS011;40102;50.906;6.972;2024-03-29T07:10:31;1.20;;;0.70;;
54193;SDS011;40102;50.906;6.972;2024-03-29T07:12:56;2.10;;;0.70;;
54193;SDS011;40102;50.906;6.972;2024-03-29T07:15:21;3.15;;;0.60;;
54193;SDS011;40102;50.906;6.972;2024-03-29T07:17:47;2.42;;;0.70;;
54193;SDS011;40102;50.906;6.972;2024-03-29T07:20:15;1.70;;;0.60;;
54193;SDS011;40102;50.906;6.972;2024-03-29T07:22:40;1.35;;;0.55;;
54193;SDS011;40102;50.906;6.972;2024-03-29T07:25:06;0.70;;;0.47;;
54193;SDS011;40102;50.906;6.972;2024-03-29T07:27:31;2.80;;;0.55;;
54193;SDS011;40102;50.906;6.972;2024-03-29T07:30:00;1.45;;;0.60;;
54193;SDS011;40102;50.906;6.972;2024-03-29T07:32:25;0.50;;;0.45;;
54193;SDS011;40102;50.906;6.972;2024-03-29T07:34:50;0.90;;;0.50;;
54193;SDS011;40102;50.906;6.972;2024-03-29T07:37:16;1.85;;;0.50;;
54193;SDS011;40102;50.906;6.972;2024-03-29T07:39:43;3.92;;;0.60;;
54193;SDS011;40102;50.906;6.972;2024-03-29T07:42:08;0.75;;;0.70;;
54193;SDS011;40102;50.906;6.972;2024-03-29T07:44:34;2.90;;;0.60;;
54193;SDS011;40102;50.906;6.972;2024-03-29T07:46:59;0.82;;;0.40;;
54193;SDS011;40102;50.906;6.972;2024-03-29T07:49:25;3.33;;;0.50;;
54193;SDS011;40102;50.906;6.972;2024-03-29T07:51:50;1.10;;;0.50;;
54193;SDS011;40102;50.906;6.972;2024-03-29T07:54:15;0.90;;;0.50;;
54193;SDS011;40102;50.906;6.972;2024-03-29T07:56:40;0.75;;;0.47;;
54193;SDS011;40102;50.906;6.972;2024-03-29T07:59:06;0.50;;;0.40;;
54193;SDS011;40102;50.906;6.972;2024-03-29T08:01:31;0.30;;;0.30;;
54193;SDS011;40102;50.906;6.972;2024-03-29T08:03:56;0.77;;;0.43;;
54193;SDS011;40102;50.906;6.972;2024-03-29T08:06:22;1.02;;;0.50;;
54193;SDS011;40102;50.906;6.972;2024-03-29T08:08:48;0.57;;;0.30;;
54193;SDS011;40102;50.906;6.972;2024-03-29T08:11:14;0.85;;;0.40;;
54193;SDS011;40102;50.906;6.972;2024-03-29T08:13:40;1.75;;;0.40;;
54193;SDS011;40102;50.906;6.972;2024-03-29T08:16:05;0.50;;;0.38;;
54193;SDS011;40102;50.906;6.972;2024-03-29T08:18:31;0.40;;;0.40;;
54193;SDS011;40102;50.906;6.972;2024-03-29T08:20:58;0.88;;;0.50;;
54193;SDS011;40102;50.906;6.972;2024-03-29T08:23:24;0.80;;;0.32;;
54193;SDS011;40102;50.906;6.972;2024-03-29T08:25:50;2.72;;;0.47;;
54193;SDS011;40102;50.906;6.972;2024-03-29T08:28:17;0.55;;;0.30;;
54193;SDS011;40102;50.906;6.972;2024-03-29T08:30:45;0.80;;;0.38;;
54193;SDS011;40102;50.906;6.972;2024-03-29T08:33:11;1.05;;;0.50;;
54193;SDS011;40102;50.906;6.972;2024-03-29T08:35:37;0.30;;;0.30;;
54193;SDS011;40102;50.906;6.972;2024-03-29T08:38:04;1.05;;;0.40;;
54193;SDS011;40102;50.906;6.972;2024-03-29T08:40:29;0.60;;;0.40;;
54193;SDS011;40102;50.906;6.972;2024-03-29T08:42:57;1.25;;;0.30;;
54193;SDS011;40102;50.906;6.972;2024-03-29T08:45:22;1.60;;;0.50;;
54193;SDS011;40102;50.906;6.972;2024-03-29T08:47:48;0.55;;;0.35;;
54193;SDS011;40102;50.906;6.972;2024-03-29T08:50:13;0.85;;;0.40;;
54193;SDS011;40102;50.906;6.972;2024-03-29T08:52:39;2.35;;;0.40;;
54193;SDS011;40102;50.906;6.972;2024-03-29T08:55:08;1.25;;;0.47;;
54193;SDS011;40102;50.906;6.972;2024-03-29T08:57:33;1.42;;;0.60;;
54193;SDS011;40102;50.906;6.972;2024-03-29T08:59:59;1.27;;;0.40;;
54193;SDS011;40102;50.906;6.972;2024-03-29T09:02:25;1.42;;;0.40;;
54193;SDS011;40102;50.906;6.972;2024-03-29T09:04:50;1.73;;;0.57;;
54193;SDS011;40102;50.906;6.972;2024-03-29T09:07:15;2.60;;;0.50;;
54193;SDS011;40102;50.906;6.972;2024-03-29T09:09:41;1.10;;;0.38;;
54193;SDS011;40102;50.906;6.972;2024-03-29T09:12:09;0.90;;;0.50;;
54193;SDS011;40102;50.906;6.972;2024-03-29T09:14:35;1.40;;;0.45;;
54193;SDS011;40102;50.906;6.972;2024-03-29T09:17:00;0.75;;;0.43;;
54193;SDS011;40102;50.906;6.972;2024-03-29T09:19:27;0.70;;;0.50;;
54193;SDS011;40102;50.906;6.972;2024-03-29T09:21:52;0.60;;;0.60;;
54193;SDS011;40102;50.906;6.972;2024-03-29T09:24:18;0.88;;;0.50;;
54193;SDS011;40102;50.906;6.972;2024-03-29T09:26:44;1.15;;;0.65;;
54193;SDS011;40102;50.906;6.972;2024-03-29T09:29:09;0.90;;;0.50;;
54193;SDS011;40102;50.906;6.972;2024-03-29T09:31:35;1.50;;;0.40;;
54193;SDS011;40102;50.906;6.972;2024-03-29T09:34:00;0.98;;;0.52;;
54193;SDS011;40102;50.906;6.972;2024-03-29T09:36:26;1.70;;;0.50;;
54193;SDS011;40102;50.906;6.972;2024-03-29T09:38:51;0.77;;;0.55;;
54193;SDS011;40102;50.906;6.972;2024-03-29T09:41:18;1.00;;;0.45;;
54193;SDS011;40102;50.906;6.972;2024-03-29T09:43:44;1.25;;;0.40;;
54193;SDS011;40102;50.906;6.972;2024-03-29T09:46:16;0.70;;;0.40;;
54193;SDS011;40102;50.906;6.972;2024-03-29T09:48:44;1.40;;;0.52;;
54193;SDS011;40102;50.906;6.972;2024-03-29T09:51:13;0.98;;;0.40;;
54193;SDS011;40102;50.906;6.972;2024-03-29T09:53:41;0.63;;;0.40;;
54193;SDS011;40102;50.906;6.972;2024-03-29T09:56:08;0.80;;;0.32;;
54193;SDS011;40102;50.906;6.972;2024-03-29T09:58:34;1.05;;;0.40;;
54193;SDS011;40102;50.906;6.972;2024-03-29T10:01:01;1.10;;;0.40;;
54193;SDS011;40102;50.906;6.972;2024-03-29T10:05:57;0.85;;;0.30;;
54193;SDS011;40102;50.906;6.972;2024-03-29T10:08:25;0.35;;;0.35;;
54193;SDS011;40102;50.906;6.972;2024-03-29T10:10:52;1.30;;;0.30;;
54193;SDS011;40102;50.906;6.972;2024-03-29T10:13:19;0.70;;;0.32;;
54193;SDS011;40102;50.906;6.972;2024-03-29T10:15:44;0.68;;;0.30;;
54193;SDS011;40102;50.906;6.972;2024-03-29T10:18:14;1.02;;;0.47;;
54193;SDS011;40102;50.906;6.972;2024-03-29T10:20:39;2.30;;;0.43;;
54193;SDS011;40102;50.906;6.972;2024-03-29T10:23:06;1.42;;;0.38;;
54193;SDS011;40102;50.906;6.972;2024-03-29T10:25:32;0.45;;;0.38;;
54193;SDS011;40102;50.906;6.972;2024-03-29T10:27:59;0.68;;;0.38;;
54193;SDS011;40102;50.906;6.972;2024-03-29T10:30:26;1.45;;;0.30;;
54193;SDS011;40102;50.906;6.972;2024-03-29T10:32:52;0.52;;;0.25;;
54193;SDS011;40102;50.906;6.972;2024-03-29T10:35:18;0.70;;;0.28;;
54193;SDS011;40102;50.906;6.972;2024-03-29T10:37:44;1.38;;;0.38;;
54193;SDS011;40102;50.906;6.972;2024-03-29T10:40:10;1.17;;;0.30;;
54193;SDS011;40102;50.906;6.972;2024-03-29T10:42:40;1.13;;;0.30;;
54193;SDS011;40102;50.906;6.972;2024-03-29T10:45:06;0.75;;;0.30;;
54193;SDS011;40102;50.906;6.972;2024-03-29T10:47:32;0.70;;;0.30;;
54193;SDS011;40102;50.906;6.972;2024-03-29T10:49:59;3.70;;;0.30;;
54193;SDS011;40102;50.906;6.972;2024-03-29T10:52:25;0.80;;;0.10;;
54193;SDS011;40102;50.906;6.972;2024-03-29T10:54:51;0.68;;;0.30;;
54193;SDS011;40102;50.906;6.972;2024-03-29T10:57:25;0.40;;;0.20;;
54193;SDS011;40102;50.906;6.972;2024-03-29T11:00:07;0.45;;;0.20;;
54193;SDS011;40102;50.906;6.972;2024-03-29T11:05:16;0.88;;;0.30;;
54193;SDS011;40102;50.906;6.972;2024-03-29T11:07:42;2.47;;;0.38;;
54193;SDS011;40102;50.906;6.972;2024-03-29T11:10:15;1.35;;;0.10;;
54193;SDS011;40102;50.906;6.972;2024-03-29T11:12:53;2.05;;;0.57;;
54193;SDS011;40102;50.906;6.972;2024-03-29T11:15:30;0.38;;;0.20;;
54193;SDS011;40102;50.906;6.972;2024-03-29T11:17:56;1.63;;;0.38;;
54193;SDS011;40102;50.906;6.972;2024-03-29T11:20:25;0.93;;;0.20;;
54193;SDS011;40102;50.906;6.972;2024-03-29T11:23:22;0.30;;;0.20;;
54193;SDS011;40102;50.906;6.972;2024-03-29T11:25:51;1.40;;;0.28;;
54193;SDS011;40102;50.906;6.972;2024-03-29T11:28:29;1.42;;;0.20;;
54193;SDS011;40102;50.906;6.972;2024-03-29T11:30:58;2.17;;;0.30;;
54193;SDS011;40102;50.906;6.972;2024-03-29T11:35:56;0.22;;;0.20;;
54193;SDS011;40102;50.906;6.972;2024-03-29T11:38:29;1.75;;;0.20;;
54193;SDS011;40102;50.906;6.972;2024-03-29T11:41:03;0.30;;;0.10;;
54193;SDS011;40102;50.906;6.972;2024-03-29T11:43:29;0.17;;;0.10;;
54193;SDS011;40102;50.906;6.972;2024-03-29T11:45:55;0.60;;;0.20;;
54193;SDS011;40102;50.906;6.972;2024-03-29T11:48:23;0.15;;;0.10;;
54193;SDS011;40102;50.906;6.972;2024-03-29T11:50:51;0.70;;;0.20;;
54193;SDS011;40102;50.906;6.972;2024-03-29T11:53:17;0.93;;;0.28;;
54193;SDS011;40102;50.906;6.972;2024-03-29T11:55:43;0.50;;;0.32;;
54193;SDS011;40102;50.906;6.972;2024-03-29T11:58:08;0.52;;;0.20;;
54193;SDS011;40102;50.906;6.972;2024-03-29T12:00:34;0.40;;;0.10;;
54193;SDS011;40102;50.906;6.972;2024-03-29T12:02:59;0.10;;;0.10;;
54193;SDS011;40102;50.906;6.972;2024-03-29T12:05:25;0.80;;;0.28;;
54193;SDS011;40102;50.906;6.972;2024-03-29T12:07:50;0.47;;;0.10;;
54193;SDS011;40102;50.906;6.972;2024-03-29T12:10:17;0.40;;;0.10;;
54193;SDS011;40102;50.906;6.972;2024-03-29T12:12:42;0.15;;;0.13;;
54193;SDS011;40102;50.906;6.972;2024-03-29T12:15:08;0.20;;;0.15;;
54193;SDS011;40102;50.906;6.972;2024-03-29T12:17:34;0.90;;;0.20;;
54193;SDS011;40102;50.906;6.972;2024-03-29T12:19:59;0.20;;;0.10;;
54193;SDS011;40102;50.906;6.972;2024-03-29T12:22:32;0.65;;;0.10;;
54193;SDS011;40102;50.906;6.972;2024-03-29T12:24:57;0.50;;;0.20;;
54193;SDS011;40102;50.906;6.972;2024-03-29T12:27:23;0.10;;;0.10;;
54193;SDS011;40102;50.906;6.972;2024-03-29T12:29:49;0.38;;;0.25;;
54193;SDS011;40102;50.906;6.972;2024-03-29T12:32:18;0.15;;;0.15;;
54193;SDS011;40102;50.906;6.972;2024-03-29T12:34:44;0.30;;;0.20;;
54193;SDS011;40102;50.906;6.972;2024-03-29T12:37:09;0.20;;;0.15;;
54193;SDS011;40102;50.906;6.972;2024-03-29T12:39:35;0.10;;;0.10;;
54193;SDS011;40102;50.906;6.972;2024-03-29T12:42:04;0.20;;;0.20;;
54193;SDS011;40102;50.906;6.972;2024-03-29T12:44:29;0.30;;;0.20;;
54193;SDS011;40102;50.906;6.972;2024-03-29T12:46:57;0.40;;;0.20;;
54193;SDS011;40102;50.906;6.972;2024-03-29T12:49:25;0.55;;;0.22;;
54193;SDS011;40102;50.906;6.972;2024-03-29T12:51:51;0.20;;;0.20;;
54193;SDS011;40102;50.906;6.972;2024-03-29T12:54:16;0.20;;;0.20;;
54193;SDS011;40102;50.906;6.972;2024-03-29T12:56:43;0.80;;;0.30;;
54193;SDS011;40102;50.906;6.972;2024-03-29T12:59:09;0.30;;;0.30;;
54193;SDS011;40102;50.906;6.972;2024-03-29T13:01:35;0.77;;;0.20;;
54193;SDS011;40102;50.906;6.972;2024-03-29T13:04:00;0.45;;;0.20;;
54193;SDS011;40102;50.906;6.972;2024-03-29T13:06:26;0.73;;;0.17;;
54193;SDS011;40102;50.906;6.972;2024-03-29T13:08:51;0.50;;;0.30;;
54193;SDS011;40102;50.906;6.972;2024-03-29T13:11:18;0.20;;;0.10;;
54193;SDS011;40102;50.906;6.972;2024-03-29T13:13:44;0.20;;;0.10;;
54193;SDS011;40102;50.906;6.972;2024-03-29T13:16:09;0.40;;;0.25;;
54193;SDS011;40102;50.906;6.972;2024-03-29T13:18:35;0.20;;;0.20;;
54193;SDS011;40102;50.906;6.972;2024-03-29T13:21:00;0.20;;;0.20;;
54193;SDS011;40102;50.906;6.972;2024-03-29T13:23:27;0.75;;;0.22;;
54193;SDS011;40102;50.906;6.972;2024-03-29T13:25:53;1.55;;;0.30;;
54193;SDS011;40102;50.906;6.972;2024-03-29T13:28:20;0.88;;;0.40;;
54193;SDS011;40102;50.906;6.972;2024-03-29T13:30:45;0.50;;;0.32;;
54193;SDS011;40102;50.906;6.972;2024-03-29T13:33:13;0.20;;;0.20;;
54193;SDS011;40102;50.906;6.972;2024-03-29T13:35:38;0.80;;;0.30;;
54193;SDS011;40102;50.906;6.972;2024-03-29T13:38:05;0.63;;;0.30;;
54193;SDS011;40102;50.906;6.972;2024-03-29T13:40:30;0.85;;;0.20;;
54193;SDS011;40102;50.906;6.972;2024-03-29T13:42:57;0.20;;;0.20;;
54193;SDS011;40102;50.906;6.972;2024-03-29T13:45:22;0.10;;;0.10;;
54193;SDS011;40102;50.906;6.972;2024-03-29T13:47:50;0.20;;;0.20;;
54193;SDS011;40102;50.906;6.972;2024-03-29T13:50:16;0.47;;;0.20;;
54193;SDS011;40102;50.906;6.972;2024-03-29T13:52:41;0.93;;;0.30;;
54193;SDS011;40102;50.906;6.972;2024-03-29T13:55:08;0.30;;;0.30;;
54193;SDS011;40102;50.906;6.972;2024-03-29T13:57:34;0.40;;;0.30;;
54193;SDS011;40102;50.906;6.972;2024-03-29T13:59:59;0.43;;;0.20;;
54193;SDS011;40102;50.906;6.972;2024-03-29T14:02:26;1.15;;;0.20;;
54193;SDS011;40102;50.906;6.972;2024-03-29T14:04:55;0.47;;;0.28;;
54193;SDS011;40102;50.906;6.972;2024-03-29T14:07:22;0.47;;;0.30;;
54193;SDS011;40102;50.906;6.972;2024-03-29T14:09:50;0.20;;;0.10;;
54193;SDS011;40102;50.906;6.972;2024-03-29T14:12:16;0.52;;;0.20;;
54193;SDS011;40102;50.906;6.972;2024-03-29T14:14:43;0.35;;;0.20;;
54193;SDS011;40102;50.906;6.972;2024-03-29T14:17:08;0.20;;;0.20;;
54193;SDS011;40102;50.906;6.972;2024-03-29T14:19:34;0.63;;;0.20;;
54193;SDS011;40102;50.906;6.972;2024-03-29T14:22:04;0.50;;;0.30;;
54193;SDS011;40102;50.906;6.972;2024-03-29T14:24:30;0.90;;;0.20;;
54193;SDS011;40102;50.906;6.972;2024-03-29T14:27:00;0.40;;;0.30;;
54193;SDS011;40102;50.906;6.972;2024-03-29T14:29:25;0.55;;;0.30;;
54193;SDS011;40102;50.906;6.972;2024-03-29T14:31:51;0.50;;;0.30;;
54193;SDS011;40102;50.906;6.972;2024-03-29T14:34:18;0.70;;;0.22;;
54193;SDS011;40102;50.906;6.972;2024-03-29T14:36:44;0.20;;;0.20;;
54193;SDS011;40102;50.906;6.972;2024-03-29T14:39:10;1.27;;;0.30;;
54193;SDS011;40102;50.906;6.972;2024-03-29T14:41:38;1.52;;;0.30;;
54193;SDS011;40102;50.906;6.972;2024-03-29T14:44:05;0.60;;;0.30;;
54193;SDS011;40102;50.906;6.972;2024-03-29T14:46:33;0.77;;;0.30;;
54193;SDS011;40102;50.906;6.972;2024-03-29T14:49:00;0.43;;;0.30;;
54193;SDS011;40102;50.906;6.972;2024-03-29T14:51:26;0.20;;;0.20;;